sensor_id;sensor_type;location;lat;lon;timestamp;pressure;altitude;pressure_sealevel;temperature;humidity
68456;BME280;55437;55.046;38.838;2022-09-02T00:00:51;99513.31;;;7.96;71.95
68456;BME280;55437;55.046;38.838;2022-09-02T00:03:18;99514.22;;;7.95;71.67
68456;BME280;55437;55.046;38.838;2022-09-02T00:05:45;99525.34;;;7.92;71.77
68456;BME280;55437;55.046;38.838;2022-09-02T00:08:11;99521.88;;;7.95;71.93
68456;BME280;55437;55.046;38.838;2022-09-02T00:10:40;99524.41;;;7.97;71.88
68456;BME280;55437;55.046;38.838;2022-09-02T00:13:07;99526.94;;;7.97;71.98
68456;BME280;55437;55.046;38.838;2022-09-02T00:15:34;99521.06;;;7.93;71.73
68456;BME280;55437;55.046;38.838;2022-09-02T00:18:00;99517.63;;;7.94;71.74
68456;BME280;55437;55.046;38.838;2022-09-02T00:20:28;99514.22;;;7.95;71.91
68456;BME280;55437;55.046;38.838;2022-09-02T00:22:55;99514.31;;;7.90;72.08
68456;BME280;55437;55.046;38.838;2022-09-02T00:25:21;99515.25;;;7.86;71.98
68456;BME280;55437;55.046;38.838;2022-09-02T00:27:48;99520.41;;;7.85;71.62
68456;BME280;55437;55.046;38.838;2022-09-02T00:30:14;99521.31;;;7.84;71.83
68456;BME280;55437;55.046;38.838;2022-09-02T00:32:40;99518.00;;;7.80;72.20
68456;BME280;55437;55.046;38.838;2022-09-02T00:35:07;99523.09;;;7.80;72.29
68456;BME280;55437;55.046;38.838;2022-09-02T00:37:35;99518.88;;;7.79;72.00
68456;BME280;55437;55.046;38.838;2022-09-02T00:40:01;99512.91;;;7.79;71.97
68456;BME280;55437;55.046;38.838;2022-09-02T00:42:28;99522.31;;;7.78;72.15
68456;BME280;55437;55.046;38.838;2022-09-02T00:44:54;99528.34;;;7.74;72.31
68456;BME280;55437;55.046;38.838;2022-09-02T00:47:20;99522.47;;;7.72;72.20
68456;BME280;55437;55.046;38.838;2022-09-02T00:49:50;99523.25;;;7.74;72.33
68456;BME280;55437;55.046;38.838;2022-09-02T00:52:22;99521.53;;;7.75;72.30
68456;BME280;55437;55.046;38.838;2022-09-02T00:54:52;99527.47;;;7.75;72.23
68456;BME280;55437;55.046;38.838;2022-09-02T00:57:21;99528.44;;;7.73;72.42
68456;BME280;55437;55.046;38.838;2022-09-02T01:02:23;99529.34;;;7.70;72.42
68456;BME280;55437;55.046;38.838;2022-09-02T01:04:51;99523.38;;;7.70;72.48
68456;BME280;55437;55.046;38.838;2022-09-02T01:07:22;99516.63;;;7.67;72.65
68456;BME280;55437;55.046;38.838;2022-09-02T01:09:48;99518.38;;;7.65;72.51
68456;BME280;55437;55.046;38.838;2022-09-02T01:12:15;99516.66;;;7.66;72.67
68456;BME280;55437;55.046;38.838;2022-09-02T01:14:42;99511.63;;;7.63;72.67
68456;BME280;55437;55.046;38.838;2022-09-02T01:17:07;99510.88;;;7.59;72.56
68456;BME280;55437;55.046;38.838;2022-09-02T01:19:43;99506.69;;;7.56;72.57
68456;BME280;55437;55.046;38.838;2022-09-02T01:22:21;99515.25;;;7.54;72.52
68456;BME280;55437;55.046;38.838;2022-09-02T01:24:47;99513.56;;;7.53;72.37
68456;BME280;55437;55.046;38.838;2022-09-02T01:27:16;99514.44;;;7.52;72.67
68456;BME280;55437;55.046;38.838;2022-09-02T01:29:43;99517.84;;;7.52;72.83
68456;BME280;55437;55.046;38.838;2022-09-02T01:32:09;99521.28;;;7.51;72.73
68456;BME280;55437;55.046;38.838;2022-09-02T01:34:35;99518.81;;;7.48;72.60
68456;BME280;55437;55.046;38.838;2022-09-02T01:37:01;99521.31;;;7.50;72.79
68456;BME280;55437;55.046;38.838;2022-09-02T01:39:27;99532.28;;;7.53;72.50
68456;BME280;55437;55.046;38.838;2022-09-02T01:41:53;99537.28;;;7.59;72.75
68456;BME280;55437;55.046;38.838;2022-09-02T01:44:18;99531.09;;;7.68;72.88
68456;BME280;55437;55.046;38.838;2022-09-02T01:46:47;99536.69;;;7.82;72.85
68456;BME280;55437;55.046;38.838;2022-09-02T01:49:13;99538.78;;;7.99;72.51
68456;BME280;55437;55.046;38.838;2022-09-02T01:51:40;99536.72;;;8.13;72.29
68456;BME280;55437;55.046;38.838;2022-09-02T01:54:06;99534.59;;;8.29;72.24
68456;BME280;55437;55.046;38.838;2022-09-02T01:56:31;99543.59;;;8.44;72.02
68456;BME280;55437;55.046;38.838;2022-09-02T01:58:59;99537.28;;;8.55;72.04
68456;BME280;55437;55.046;38.838;2022-09-02T02:01:27;99546.38;;;8.65;72.25
68456;BME280;55437;55.046;38.838;2022-09-02T02:03:53;99547.75;;;8.77;72.01
68456;BME280;55437;55.046;38.838;2022-09-02T02:06:22;99551.63;;;8.90;71.76
68456;BME280;55437;55.046;38.838;2022-09-02T02:08:48;99560.69;;;9.00;71.48
68456;BME280;55437;55.046;38.838;2022-09-02T02:11:19;99568.19;;;9.07;71.54
68456;BME280;55437;55.046;38.838;2022-09-02T02:13:49;99556.88;;;9.14;71.46
68456;BME280;55437;55.046;38.838;2022-09-02T02:16:15;99563.53;;;9.19;71.11
68456;BME280;55437;55.046;38.838;2022-09-02T02:18:41;99560.97;;;9.19;71.09
68456;BME280;55437;55.046;38.838;2022-09-02T02:21:07;99568.56;;;9.22;71.06
68456;BME280;55437;55.046;38.838;2022-09-02T02:23:33;99564.16;;;9.27;70.85
68456;BME280;55437;55.046;38.838;2022-09-02T02:25:59;99567.31;;;9.35;70.60
68456;BME280;55437;55.046;38.838;2022-09-02T02:28:25;99560.19;;;9.44;70.52
68456;BME280;55437;55.046;38.838;2022-09-02T02:30:51;99564.09;;;9.55;70.20
68456;BME280;55437;55.046;38.838;2022-09-02T02:33:17;99563.00;;;9.64;69.93
68456;BME280;55437;55.046;38.838;2022-09-02T02:35:43;99554.28;;;9.68;69.64
68456;BME280;55437;55.046;38.838;2022-09-02T02:38:09;99557.66;;;9.70;69.87
68456;BME280;55437;55.046;38.838;2022-09-02T02:40:35;99562.59;;;9.76;69.56
68456;BME280;55437;55.046;38.838;2022-09-02T02:43:03;99564.03;;;9.83;69.31
68456;BME280;55437;55.046;38.838;2022-09-02T02:45:29;99562.22;;;9.87;69.20
68456;BME280;55437;55.046;38.838;2022-09-02T02:47:55;99563.72;;;9.92;69.12
68456;BME280;55437;55.046;38.838;2022-09-02T02:50:23;99567.88;;;9.96;68.93
68456;BME280;55437;55.046;38.838;2022-09-02T02:52:50;99573.06;;;9.95;69.02
68456;BME280;55437;55.046;38.838;2022-09-02T02:55:19;99565.31;;;9.96;68.77
68456;BME280;55437;55.046;38.838;2022-09-02T02:57:45;99573.75;;;10.00;68.97
68456;BME280;55437;55.046;38.838;2022-09-02T03:00:16;99576.13;;;10.04;68.56
68456;BME280;55437;55.046;38.838;2022-09-02T03:02:46;99587.97;;;10.08;68.49
68456;BME280;55437;55.046;38.838;2022-09-02T03:05:12;99586.25;;;10.09;68.22
68456;BME280;55437;55.046;38.838;2022-09-02T03:07:39;99582.81;;;10.10;68.28
68456;BME280;55437;55.046;38.838;2022-09-02T03:10:06;99585.19;;;10.15;68.25
68456;BME280;55437;55.046;38.838;2022-09-02T03:12:37;99579.97;;;10.18;68.14
68456;BME280;55437;55.046;38.838;2022-09-02T03:15:06;99577.38;;;10.19;68.23
68456;BME280;55437;55.046;38.838;2022-09-02T03:17:33;99581.53;;;10.23;68.21
68456;BME280;55437;55.046;38.838;2022-09-02T03:19:59;99592.41;;;10.30;67.74
68456;BME280;55437;55.046;38.838;2022-09-02T03:22:29;99593.09;;;10.35;67.46
68456;BME280;55437;55.046;38.838;2022-09-02T03:24:54;99589.66;;;10.36;67.47
68456;BME280;55437;55.046;38.838;2022-09-02T03:27:22;99596.28;;;10.41;67.20
68456;BME280;55437;55.046;38.838;2022-09-02T03:29:48;99593.56;;;10.46;67.18
68456;BME280;55437;55.046;38.838;2022-09-02T03:32:14;99603.91;;;10.43;67.07
68456;BME280;55437;55.046;38.838;2022-09-02T03:34:40;99593.72;;;10.41;67.01
68456;BME280;55437;55.046;38.838;2022-09-02T03:37:07;99596.13;;;10.46;66.88
68456;BME280;55437;55.046;38.838;2022-09-02T03:39:34;99595.78;;;10.55;67.17
68456;BME280;55437;55.046;38.838;2022-09-02T03:42:01;99600.72;;;10.61;66.63
68456;BME280;55437;55.046;38.838;2022-09-02T03:44:27;99595.25;;;10.70;66.29
68456;BME280;55437;55.046;38.838;2022-09-02T03:46:53;99595.78;;;10.78;66.14
68456;BME280;55437;55.046;38.838;2022-09-02T03:49:19;99602.44;;;10.84;65.91
68456;BME280;55437;55.046;38.838;2022-09-02T03:51:44;99600.59;;;10.88;65.73
68456;BME280;55437;55.046;38.838;2022-09-02T03:54:11;99599.59;;;10.92;65.54
68456;BME280;55437;55.046;38.838;2022-09-02T03:56:38;99600.38;;;10.94;65.44
68456;BME280;55437;55.046;38.838;2022-09-02T03:59:04;99593.84;;;10.85;65.07
68456;BME280;55437;55.046;38.838;2022-09-02T04:01:30;99598.41;;;10.77;65.30
68456;BME280;55437;55.046;38.838;2022-09-02T04:03:56;99609.22;;;10.87;64.69
68456;BME280;55437;55.046;38.838;2022-09-02T04:06:23;99613.59;;;11.06;64.26
68456;BME280;55437;55.046;38.838;2022-09-02T04:08:50;99607.81;;;11.23;64.10
68456;BME280;55437;55.046;38.838;2022-09-02T04:11:18;99609.78;;;11.38;63.58
68456;BME280;55437;55.046;38.838;2022-09-02T04:13:47;99611.88;;;11.50;62.93
68456;BME280;55437;55.046;38.838;2022-09-02T04:16:20;99615.06;;;11.57;62.96
68456;BME280;55437;55.046;38.838;2022-09-02T04:18:52;99619.44;;;11.77;62.67
68456;BME280;55437;55.046;38.838;2022-09-02T04:21:20;99615.75;;;12.04;62.41
68456;BME280;55437;55.046;38.838;2022-09-02T04:23:46;99617.53;;;12.22;61.50
68456;BME280;55437;55.046;38.838;2022-09-02T04:26:14;99617.25;;;12.30;60.83
68456;BME280;55437;55.046;38.838;2022-09-02T04:28:41;99619.13;;;12.45;60.87
68456;BME280;55437;55.046;38.838;2022-09-02T04:31:10;99621.41;;;12.53;60.38
68456;BME280;55437;55.046;38.838;2022-09-02T04:33:37;99623.13;;;12.52;60.35
68456;BME280;55437;55.046;38.838;2022-09-02T04:36:10;99626.13;;;12.62;60.22
68456;BME280;55437;55.046;38.838;2022-09-02T04:38:37;99630.28;;;12.66;59.91
68456;BME280;55437;55.046;38.838;2022-09-02T04:43:35;99627.94;;;12.60;59.53
68456;BME280;55437;55.046;38.838;2022-09-02T04:46:04;99636.97;;;12.50;59.44
68456;BME280;55437;55.046;38.838;2022-09-02T04:48:31;99636.59;;;12.39;59.83
68456;BME280;55437;55.046;38.838;2022-09-02T04:51:04;99640.59;;;12.25;60.01
68456;BME280;55437;55.046;38.838;2022-09-02T04:53:30;99644.19;;;12.21;60.04
68456;BME280;55437;55.046;38.838;2022-09-02T04:55:56;99643.34;;;12.21;60.25
68456;BME280;55437;55.046;38.838;2022-09-02T04:58:22;99641.59;;;12.21;60.26
68456;BME280;55437;55.046;38.838;2022-09-02T05:00:48;99645.69;;;12.27;60.53
68456;BME280;55437;55.046;38.838;2022-09-02T05:03:15;99648.06;;;12.32;60.41
68456;BME280;55437;55.046;38.838;2022-09-02T05:05:44;99643.53;;;12.37;60.00
68456;BME280;55437;55.046;38.838;2022-09-02T05:08:11;99643.31;;;12.43;60.04
68456;BME280;55437;55.046;38.838;2022-09-02T05:10:39;99646.63;;;12.45;59.81
68456;BME280;55437;55.046;38.838;2022-09-02T05:13:05;99643.44;;;12.40;60.15
68456;BME280;55437;55.046;38.838;2022-09-02T05:15:31;99642.81;;;12.33;60.42
68456;BME280;55437;55.046;38.838;2022-09-02T05:17:57;99650.81;;;12.27;60.43
68456;BME280;55437;55.046;38.838;2022-09-02T05:20:24;99656.41;;;12.16;61.30
68456;BME280;55437;55.046;38.838;2022-09-02T05:22:50;99660.44;;;12.02;61.32
68456;BME280;55437;55.046;38.838;2022-09-02T05:25:16;99655.47;;;11.97;61.85
68456;BME280;55437;55.046;38.838;2022-09-02T05:27:44;99657.41;;;11.92;61.94
68456;BME280;55437;55.046;38.838;2022-09-02T05:30:10;99670.56;;;11.84;62.26
68456;BME280;55437;55.046;38.838;2022-09-02T05:32:37;99671.56;;;11.82;62.08
68456;BME280;55437;55.046;38.838;2022-09-02T05:35:03;99672.63;;;11.76;62.60
68456;BME280;55437;55.046;38.838;2022-09-02T05:37:31;99667.09;;;11.64;62.94
68456;BME280;55437;55.046;38.838;2022-09-02T05:39:58;99670.91;;;11.53;63.07
68456;BME280;55437;55.046;38.838;2022-09-02T05:42:24;99671.97;;;11.48;63.18
68456;BME280;55437;55.046;38.838;2022-09-02T05:44:51;99675.16;;;11.54;63.18
68456;BME280;55437;55.046;38.838;2022-09-02T05:47:20;99677.31;;;11.65;62.99
68456;BME280;55437;55.046;38.838;2022-09-02T05:49:46;99671.56;;;11.82;62.44
68456;BME280;55437;55.046;38.838;2022-09-02T05:52:13;99673.63;;;11.94;62.25
68456;BME280;55437;55.046;38.838;2022-09-02T05:54:43;99674.22;;;12.21;61.49
68456;BME280;55437;55.046;38.838;2022-09-02T05:57:14;99678.91;;;12.53;60.74
68456;BME280;55437;55.046;38.838;2022-09-02T05:59:49;99682.25;;;12.94;59.72
68456;BME280;55437;55.046;38.838;2022-09-02T06:02:22;99682.03;;;13.19;58.73
68456;BME280;55437;55.046;38.838;2022-09-02T06:04:51;99680.78;;;13.47;57.77
68456;BME280;55437;55.046;38.838;2022-09-02T06:07:20;99679.56;;;13.73;56.84
68456;BME280;55437;55.046;38.838;2022-09-02T06:09:48;99697.72;;;14.59;54.87
68456;BME280;55437;55.046;38.838;2022-09-02T06:12:16;99685.78;;;15.06;53.94
68456;BME280;55437;55.046;38.838;2022-09-02T06:14:44;99684.78;;;15.40;53.03
68456;BME280;55437;55.046;38.838;2022-09-02T06:17:10;99693.97;;;15.46;52.53
68456;BME280;55437;55.046;38.838;2022-09-02T06:19:42;99691.94;;;16.14;50.88
68456;BME280;55437;55.046;38.838;2022-09-02T06:22:09;99700.09;;;17.51;47.80
68456;BME280;55437;55.046;38.838;2022-09-02T06:24:36;99714.63;;;18.74;44.79
68456;BME280;55437;55.046;38.838;2022-09-02T06:27:08;99696.56;;;19.84;42.39
68456;BME280;55437;55.046;38.838;2022-09-02T06:29:36;99708.38;;;20.00;41.60
68456;BME280;55437;55.046;38.838;2022-09-02T06:32:04;99714.38;;;19.40;42.57
68456;BME280;55437;55.046;38.838;2022-09-02T06:34:30;99719.84;;;18.22;42.92
68456;BME280;55437;55.046;38.838;2022-09-02T06:36:56;99723.38;;;17.53;43.64
68456;BME280;55437;55.046;38.838;2022-09-02T06:39:23;99730.53;;;17.07;44.43
68456;BME280;55437;55.046;38.838;2022-09-02T06:41:52;99725.88;;;16.69;44.42
68456;BME280;55437;55.046;38.838;2022-09-02T06:44:20;99736.25;;;16.39;44.69
68456;BME280;55437;55.046;38.838;2022-09-02T06:46:55;99731.81;;;15.96;44.75
68456;BME280;55437;55.046;38.838;2022-09-02T06:49:22;99738.09;;;15.76;44.88
68456;BME280;55437;55.046;38.838;2022-09-02T06:51:51;99745.75;;;15.62;44.99
68456;BME280;55437;55.046;38.838;2022-09-02T06:54:20;99741.22;;;15.49;45.27
68456;BME280;55437;55.046;38.838;2022-09-02T06:56:52;99739.88;;;15.42;45.29
68456;BME280;55437;55.046;38.838;2022-09-02T06:59:22;99750.72;;;15.33;45.64
68456;BME280;55437;55.046;38.838;2022-09-02T07:01:51;99761.19;;;15.14;45.98
68456;BME280;55437;55.046;38.838;2022-09-02T07:04:20;99762.59;;;15.04;46.27
68456;BME280;55437;55.046;38.838;2022-09-02T07:07:07;99766.28;;;15.16;46.04
68456;BME280;55437;55.046;38.838;2022-09-02T07:09:39;99757.97;;;15.75;45.17
68456;BME280;55437;55.046;38.838;2022-09-02T07:12:10;99770.31;;;15.86;45.26
68456;BME280;55437;55.046;38.838;2022-09-02T07:14:42;99766.97;;;16.00;44.54
68456;BME280;55437;55.046;38.838;2022-09-02T07:17:13;99773.31;;;15.94;43.93
68456;BME280;55437;55.046;38.838;2022-09-02T07:19:48;99768.91;;;15.96;43.77
68456;BME280;55437;55.046;38.838;2022-09-02T07:22:14;99770.00;;;15.92;43.87
68456;BME280;55437;55.046;38.838;2022-09-02T07:24:41;99777.25;;;16.01;43.50
68456;BME280;55437;55.046;38.838;2022-09-02T07:27:08;99777.78;;;15.92;43.54
68456;BME280;55437;55.046;38.838;2022-09-02T07:29:35;99770.25;;;15.88;43.26
68456;BME280;55437;55.046;38.838;2022-09-02T07:32:02;99777.00;;;15.74;43.27
68456;BME280;55437;55.046;38.838;2022-09-02T07:34:28;99771.50;;;15.65;43.18
68456;BME280;55437;55.046;38.838;2022-09-02T07:36:55;99781.50;;;15.55;43.29
68456;BME280;55437;55.046;38.838;2022-09-02T07:39:22;99780.38;;;15.43;43.59
68456;BME280;55437;55.046;38.838;2022-09-02T07:41:49;99779.50;;;15.27;43.59
68456;BME280;55437;55.046;38.838;2022-09-02T07:44:18;99791.59;;;15.09;44.22
68456;BME280;55437;55.046;38.838;2022-09-02T07:46:44;99789.06;;;14.92;44.43
68456;BME280;55437;55.046;38.838;2022-09-02T07:49:12;99788.06;;;14.77;44.96
68456;BME280;55437;55.046;38.838;2022-09-02T07:51:41;99791.72;;;14.56;45.42
68456;BME280;55437;55.046;38.838;2022-09-02T07:54:10;99791.56;;;14.42;45.58
68456;BME280;55437;55.046;38.838;2022-09-02T07:56:38;99797.97;;;14.33;45.87
68456;BME280;55437;55.046;38.838;2022-09-02T07:59:06;99805.41;;;14.22;46.18
68456;BME280;55437;55.046;38.838;2022-09-02T08:01:33;99806.13;;;14.07;46.63
68456;BME280;55437;55.046;38.838;2022-09-02T08:04:00;99816.44;;;14.07;47.23
68456;BME280;55437;55.046;38.838;2022-09-02T08:06:30;99800.56;;;14.15;47.18
68456;BME280;55437;55.046;38.838;2022-09-02T08:08:57;99809.59;;;14.25;47.26
68456;BME280;55437;55.046;38.838;2022-09-02T08:11:23;99817.66;;;14.36;47.01
68456;BME280;55437;55.046;38.838;2022-09-02T08:13:49;99815.19;;;14.52;47.09
68456;BME280;55437;55.046;38.838;2022-09-02T08:16:16;99821.13;;;14.54;47.27
68456;BME280;55437;55.046;38.838;2022-09-02T08:18:42;99822.16;;;14.50;47.02
68456;BME280;55437;55.046;38.838;2022-09-02T08:21:07;99831.59;;;14.51;46.94
68456;BME280;55437;55.046;38.838;2022-09-02T08:23:33;99826.69;;;14.63;46.75
68456;BME280;55437;55.046;38.838;2022-09-02T08:25:59;99828.00;;;14.72;46.65
68456;BME280;55437;55.046;38.838;2022-09-02T08:28:27;99835.03;;;14.86;46.61
68456;BME280;55437;55.046;38.838;2022-09-02T08:30:54;99838.63;;;15.18;46.36
68456;BME280;55437;55.046;38.838;2022-09-02T08:33:23;99832.13;;;15.43;45.60
68456;BME280;55437;55.046;38.838;2022-09-02T08:35:49;99835.38;;;15.47;45.45
68456;BME280;55437;55.046;38.838;2022-09-02T08:38:14;99840.38;;;15.67;45.10
68456;BME280;55437;55.046;38.838;2022-09-02T08:40:41;99837.06;;;15.81;45.09
68456;BME280;55437;55.046;38.838;2022-09-02T08:43:34;99836.81;;;15.85;44.61
68456;BME280;55437;55.046;38.838;2022-09-02T08:46:05;99842.56;;;15.75;44.92
68456;BME280;55437;55.046;38.838;2022-09-02T08:51:40;99857.59;;;15.84;44.92
68456;BME280;55437;55.046;38.838;2022-09-02T08:56:57;99846.44;;;15.99;45.05
68456;BME280;55437;55.046;38.838;2022-09-02T08:59:25;99852.53;;;15.98;44.71
68456;BME280;55437;55.046;38.838;2022-09-02T09:04:57;99853.56;;;15.63;44.19
68456;BME280;55437;55.046;38.838;2022-09-02T09:10:10;99866.94;;;15.54;44.38
68456;BME280;55437;55.046;38.838;2022-09-02T09:17:46;99877.72;;;15.29;44.42
68456;BME280;55437;55.046;38.838;2022-09-02T09:20:19;99879.31;;;15.14;45.06
68456;BME280;55437;55.046;38.838;2022-09-02T09:22:47;99883.13;;;15.07;45.13
68456;BME280;55437;55.046;38.838;2022-09-02T09:25:15;99888.69;;;15.17;44.85
68456;BME280;55437;55.046;38.838;2022-09-02T09:27:42;99889.63;;;15.48;44.54
68456;BME280;55437;55.046;38.838;2022-09-02T09:30:11;99889.75;;;15.80;44.41
68456;BME280;55437;55.046;38.838;2022-09-02T09:32:51;99891.97;;;16.03;43.83
68456;BME280;55437;55.046;38.838;2022-09-02T09:35:22;99889.63;;;15.99;43.79
68456;BME280;55437;55.046;38.838;2022-09-02T09:37:50;99891.19;;;15.85;43.76
68456;BME280;55437;55.046;38.838;2022-09-02T09:40:20;99891.81;;;15.73;43.88
68456;BME280;55437;55.046;38.838;2022-09-02T09:45:38;99917.22;;;15.82;45.06
68456;BME280;55437;55.046;38.838;2022-09-02T09:48:25;99922.41;;;15.82;45.27
68456;BME280;55437;55.046;38.838;2022-09-02T09:58:22;99924.31;;;16.12;44.13
68456;BME280;55437;55.046;38.838;2022-09-02T10:00:50;99925.22;;;16.11;43.89
68456;BME280;55437;55.046;38.838;2022-09-02T10:03:26;99927.13;;;16.07;43.81
68456;BME280;55437;55.046;38.838;2022-09-02T10:05:55;99940.78;;;16.27;44.12
68456;BME280;55437;55.046;38.838;2022-09-02T10:08:23;99933.13;;;16.72;43.88
68456;BME280;55437;55.046;38.838;2022-09-02T10:11:04;99929.31;;;16.93;42.88
68456;BME280;55437;55.046;38.838;2022-09-02T10:13:32;99924.81;;;16.97;42.89
68456;BME280;55437;55.046;38.838;2022-09-02T10:18:50;99938.53;;;16.36;43.15
68456;BME280;55437;55.046;38.838;2022-09-02T10:21:41;99944.63;;;16.35;43.82
68456;BME280;55437;55.046;38.838;2022-09-02T10:24:39;99951.38;;;16.22;43.57
68456;BME280;55437;55.046;38.838;2022-09-02T10:27:23;99950.00;;;16.48;43.82
68456;BME280;55437;55.046;38.838;2022-09-02T10:29:56;99946.25;;;16.85;43.27
68456;BME280;55437;55.046;38.838;2022-09-02T10:35:47;99953.44;;;17.25;42.15
68456;BME280;55437;55.046;38.838;2022-09-02T10:40:51;99958.00;;;16.90;41.71
68456;BME280;55437;55.046;38.838;2022-09-02T10:43:32;99972.09;;;16.71;42.39
68456;BME280;55437;55.046;38.838;2022-09-02T10:46:07;99982.13;;;16.61;42.45
68456;BME280;55437;55.046;38.838;2022-09-02T10:57:01;99967.66;;;17.34;41.32
68456;BME280;55437;55.046;38.838;2022-09-02T10:59:39;99969.44;;;17.18;41.56
68456;BME280;55437;55.046;38.838;2022-09-02T11:02:27;99967.28;;;17.10;41.80
68456;BME280;55437;55.046;38.838;2022-09-02T11:11:03;99985.31;;;17.27;41.31
68456;BME280;55437;55.046;38.838;2022-09-02T11:13:39;99985.75;;;17.20;41.33
68456;BME280;55437;55.046;38.838;2022-09-02T11:16:16;99978.91;;;17.49;41.09
68456;BME280;55437;55.046;38.838;2022-09-02T11:21:41;99977.06;;;17.51;40.61
68456;BME280;55437;55.046;38.838;2022-09-02T11:27:04;99998.16;;;17.15;41.46
68456;BME280;55437;55.046;38.838;2022-09-02T11:34:57;100001.41;;;16.55;42.27
68456;BME280;55437;55.046;38.838;2022-09-02T11:40:02;100002.97;;;16.75;42.06
68456;BME280;55437;55.046;38.838;2022-09-02T11:43:09;99998.31;;;16.49;42.33
68456;BME280;55437;55.046;38.838;2022-09-02T11:53:48;100011.25;;;16.33;42.71
68456;BME280;55437;55.046;38.838;2022-09-02T11:56:27;100008.91;;;16.29;43.07
68456;BME280;55437;55.046;38.838;2022-09-02T11:58:55;100014.63;;;16.51;42.50
68456;BME280;55437;55.046;38.838;2022-09-02T12:01:48;100015.28;;;16.39;42.92
68456;BME280;55437;55.046;38.838;2022-09-02T12:09:54;100009.50;;;16.18;43.39
68456;BME280;55437;55.046;38.838;2022-09-02T12:15:12;100013.75;;;16.35;42.69
68456;BME280;55437;55.046;38.838;2022-09-02T12:23:07;100016.50;;;16.16;43.35
68456;BME280;55437;55.046;38.838;2022-09-02T12:25:46;100011.84;;;16.38;43.36
68456;BME280;55437;55.046;38.838;2022-09-02T12:28:24;100020.88;;;16.64;42.69
68456;BME280;55437;55.046;38.838;2022-09-02T12:36:02;100021.22;;;16.56;42.32
68456;BME280;55437;55.046;38.838;2022-09-02T12:38:32;100022.72;;;16.45;42.53
68456;BME280;55437;55.046;38.838;2022-09-02T12:54:36;100027.03;;;16.93;40.70
68456;BME280;55437;55.046;38.838;2022-09-02T12:57:06;100034.06;;;17.07;40.80
68456;BME280;55437;55.046;38.838;2022-09-02T12:59:36;100030.56;;;17.08;40.67
68456;BME280;55437;55.046;38.838;2022-09-02T13:10:30;100048.41;;;16.98;40.95
68456;BME280;55437;55.046;38.838;2022-09-02T13:27:36;100062.94;;;16.85;41.39
68456;BME280;55437;55.046;38.838;2022-09-02T13:30:12;100067.03;;;16.73;41.84
68456;BME280;55437;55.046;38.838;2022-09-02T13:32:39;100065.88;;;16.63;42.09
68456;BME280;55437;55.046;38.838;2022-09-02T13:35:15;100066.56;;;16.49;42.49
68456;BME280;55437;55.046;38.838;2022-09-02T13:37:43;100080.56;;;16.30;42.53
68456;BME280;55437;55.046;38.838;2022-09-02T13:40:23;100078.19;;;16.08;43.53
68456;BME280;55437;55.046;38.838;2022-09-02T13:42:51;100083.63;;;15.86;44.52
68456;BME280;55437;55.046;38.838;2022-09-02T13:45:20;100091.47;;;15.67;45.04
68456;BME280;55437;55.046;38.838;2022-09-02T13:47:51;100098.69;;;15.61;45.21
68456;BME280;55437;55.046;38.838;2022-09-02T13:50:20;100103.56;;;15.48;45.80
68456;BME280;55437;55.046;38.838;2022-09-02T13:52:50;100088.16;;;15.28;46.51
68456;BME280;55437;55.046;38.838;2022-09-02T13:55:17;100091.53;;;15.11;46.80
68456;BME280;55437;55.046;38.838;2022-09-02T13:57:58;100097.69;;;14.90;47.34
68456;BME280;55437;55.046;38.838;2022-09-02T14:00:35;100118.44;;;14.69;47.75
68456;BME280;55437;55.046;38.838;2022-09-02T14:03:05;100121.28;;;14.63;48.38
68456;BME280;55437;55.046;38.838;2022-09-02T14:05:32;100108.44;;;14.62;49.57
68456;BME280;55437;55.046;38.838;2022-09-02T14:08:00;100123.88;;;14.63;50.74
68456;BME280;55437;55.046;38.838;2022-09-02T14:10:29;100116.47;;;14.56;51.50
68456;BME280;55437;55.046;38.838;2022-09-02T14:12:57;100112.84;;;14.39;52.19
68456;BME280;55437;55.046;38.838;2022-09-02T14:15:29;100111.53;;;14.29;52.33
68456;BME280;55437;55.046;38.838;2022-09-02T14:20:50;100114.66;;;14.17;52.74
68456;BME280;55437;55.046;38.838;2022-09-02T14:23:17;100123.28;;;13.96;53.04
68456;BME280;55437;55.046;38.838;2022-09-02T14:26:03;100113.66;;;13.79;53.56
68456;BME280;55437;55.046;38.838;2022-09-02T14:28:32;100109.31;;;13.59;53.61
68456;BME280;55437;55.046;38.838;2022-09-02T14:31:06;100114.28;;;13.42;53.17
68456;BME280;55437;55.046;38.838;2022-09-02T14:33:41;100126.63;;;13.34;53.51
68456;BME280;55437;55.046;38.838;2022-09-02T14:38:53;100121.38;;;13.37;53.74
68456;BME280;55437;55.046;38.838;2022-09-02T14:41:27;100121.97;;;13.44;53.46
68456;BME280;55437;55.046;38.838;2022-09-02T14:44:14;100127.84;;;13.47;53.83
68456;BME280;55437;55.046;38.838;2022-09-02T14:46:46;100122.28;;;13.36;54.00
68456;BME280;55437;55.046;38.838;2022-09-02T14:49:22;100128.69;;;13.26;53.98
68456;BME280;55437;55.046;38.838;2022-09-02T14:51:54;100129.75;;;13.20;54.09
68456;BME280;55437;55.046;38.838;2022-09-02T14:54:47;100137.72;;;13.14;54.07
68456;BME280;55437;55.046;38.838;2022-09-02T14:57:22;100138.00;;;13.05;53.69
68456;BME280;55437;55.046;38.838;2022-09-02T14:59:53;100133.16;;;12.97;53.83
68456;BME280;55437;55.046;38.838;2022-09-02T15:02:33;100128.09;;;12.94;54.28
68456;BME280;55437;55.046;38.838;2022-09-02T15:05:03;100129.97;;;12.91;54.19
68456;BME280;55437;55.046;38.838;2022-09-02T15:07:29;100130.91;;;12.88;54.00
68456;BME280;55437;55.046;38.838;2022-09-02T15:10:01;100126.03;;;12.81;54.02
68456;BME280;55437;55.046;38.838;2022-09-02T15:12:30;100117.75;;;12.73;54.47
68456;BME280;55437;55.046;38.838;2022-09-02T15:14:57;100126.56;;;12.67;54.30
68456;BME280;55437;55.046;38.838;2022-09-02T15:17:23;100124.28;;;12.58;54.28
68456;BME280;55437;55.046;38.838;2022-09-02T15:19:49;100115.91;;;12.53;54.51